createdAt,value
2017-08-03T00:00:20.670Z,1009.51
2017-08-03T00:01:30.899Z,1009.49
2017-08-03T00:02:40.830Z,1009.47
2017-08-03T00:03:51.063Z,1009.47
2017-08-03T00:05:00.678Z,1009.5
2017-08-03T00:06:10.310Z,1009.47
2017-08-03T00:07:20.235Z,1009.46
2017-08-03T00:08:30.459Z,1009.43
2017-08-03T00:09:40.381Z,1009.45
2017-08-03T00:10:50.298Z,1009.5
2017-08-03T00:11:59.909Z,1009.49
2017-08-03T00:13:09.828Z,1009.44
2017-08-03T00:14:20.075Z,1009.38
2017-08-03T00:15:29.406Z,1009.33
2017-08-03T00:16:39.653Z,1009.3
2017-08-03T00:17:49.789Z,1009.31
2017-08-03T00:18:59.745Z,1009.25
2017-08-03T00:20:09.990Z,1009.19
2017-08-03T00:21:19.920Z,1009.14
2017-08-03T00:22:29.879Z,1009.13
2017-08-03T00:23:39.489Z,1009.2
2017-08-03T00:24:49.431Z,1009.18
2017-08-03T00:25:59.371Z,1009.14
2017-08-03T00:27:09.601Z,1009.13
2017-08-03T00:28:18.919Z,1009.14
2017-08-03T00:29:29.163Z,1009.1
2017-08-03T00:30:39.420Z,1009.06
2017-08-03T00:31:49.353Z,1009.04
2017-08-03T00:32:59.275Z,1009.01
2017-08-03T00:34:09.520Z,1009
2017-08-03T00:35:19.458Z,1008.96
2017-08-03T00:36:29.399Z,1008.86
2017-08-03T00:37:39.348Z,1008.86
2017-08-03T00:38:49.280Z,1008.81
2017-08-03T00:39:59.199Z,1008.81
2017-08-03T00:41:09.120Z,1008.79
2017-08-03T00:42:19.072Z,1008.72
2017-08-03T00:43:28.999Z,1008.67
2017-08-03T00:44:38.922Z,1008.65
2017-08-03T00:45:49.147Z,1008.64
2017-08-03T00:46:59.083Z,1008.64
2017-08-03T00:48:08.997Z,1008.65
2017-08-03T00:49:18.300Z,1008.67
2017-08-03T00:50:28.226Z,1008.63
2017-08-03T00:51:38.448Z,1008.6
2017-08-03T00:52:48.383Z,1008.52
2017-08-03T00:53:58.996Z,1008.48
2017-08-03T00:55:09.227Z,1008.51
2017-08-03T00:56:18.841Z,1008.48
2017-08-03T00:57:29.063Z,1008.44
2017-08-03T00:58:39.298Z,1008.41
2017-08-03T00:59:48.950Z,1008.38
2017-08-03T01:00:59.182Z,1008.35
2017-08-03T01:02:09.115Z,1008.44
2017-08-03T01:03:19.054Z,1008.44
2017-08-03T01:04:28.693Z,1008.47
2017-08-03T01:05:38.925Z,1008.47
2017-08-03T01:06:48.241Z,1008.49
2017-08-03T01:07:58.181Z,1008.46
2017-08-03T01:09:07.799Z,1008.44
2017-08-03T01:10:18.038Z,1008.46
2017-08-03T01:11:28.260Z,1008.45
2017-08-03T01:12:37.875Z,1008.49
2017-08-03T01:13:47.789Z,1008.45
2017-08-03T01:14:58.014Z,1008.41
2017-08-03T01:22:28.543Z,1008.06
2017-08-03T01:23:38.775Z,1007.95
2017-08-03T01:24:48.694Z,1007.89
2017-08-03T01:25:58.622Z,1007.93
2017-08-03T01:27:08.859Z,1008.07
2017-08-03T01:28:18.785Z,1008.18
2017-08-03T01:29:29.032Z,1008.24
2017-08-03T01:30:38.650Z,1008.25
2017-08-03T01:31:48.892Z,1008.27
2017-08-03T01:32:58.815Z,1008.24
2017-08-03T01:34:08.756Z,1008.2
2017-08-03T01:35:18.372Z,1008.09
2017-08-03T01:36:28.623Z,1008.05
2017-08-03T01:37:38.234Z,1008.04
2017-08-03T01:38:48.166Z,1008.05
2017-08-03T01:39:57.501Z,1008.02
2017-08-03T01:41:07.445Z,1008.03
2017-08-03T01:42:17.698Z,1008.01
2017-08-03T01:43:27.619Z,1007.96
2017-08-03T01:44:37.559Z,1007.96
2017-08-03T01:45:47.496Z,1007.98
2017-08-03T01:46:57.161Z,1007.95
2017-08-03T01:48:07.090Z,1007.95
2017-08-03T01:49:16.707Z,1007.92
2017-08-03T01:50:26.316Z,1007.89
2017-08-03T01:51:36.582Z,1007.9
2017-08-03T01:52:46.518Z,1007.83
2017-08-03T01:53:56.147Z,1007.86
2017-08-03T01:55:06.375Z,1007.77
2017-08-03T01:56:16.297Z,1007.78
2017-08-03T01:57:26.230Z,1007.74
2017-08-03T01:58:36.158Z,1007.7
2017-08-03T01:59:46.403Z,1007.67
2017-08-03T02:00:56.027Z,1007.61
2017-08-03T02:02:05.949Z,1007.64
2017-08-03T02:03:15.878Z,1007.56
2017-08-03T02:04:26.117Z,1007.48
2017-08-03T02:05:35.743Z,1007.52
2017-08-03T02:06:45.392Z,1007.6
2017-08-03T02:07:54.716Z,1007.66
2017-08-03T02:09:04.953Z,1007.64
2017-08-03T02:10:14.904Z,1007.6
2017-08-03T02:11:24.855Z,1007.64
2017-08-03T02:12:35.091Z,1007.68
2017-08-03T02:13:45.028Z,1007.65
2017-08-03T02:14:54.339Z,1007.66
2017-08-03T02:16:04.259Z,1007.61
2017-08-03T02:17:14.188Z,1007.64
2017-08-03T02:18:24.104Z,1007.65
2017-08-03T02:19:34.338Z,1007.67
2017-08-03T02:20:44.559Z,1007.64
2017-08-03T02:21:54.172Z,1007.61
2017-08-03T02:23:04.089Z,1007.59
2017-08-03T02:24:14.317Z,1007.59
2017-08-03T02:25:23.623Z,1007.57
2017-08-03T02:26:33.689Z,1007.56
2017-08-03T02:27:43.985Z,1007.51
2017-08-03T02:28:54.219Z,1007.5
2017-08-03T02:30:04.458Z,1007.53
2017-08-03T02:31:14.696Z,1007.57
2017-08-03T02:32:24.617Z,1007.55
2017-08-03T02:33:34.225Z,1007.54
2017-08-03T02:34:44.156Z,1007.52
2017-08-03T02:35:53.769Z,1007.5
2017-08-03T02:37:03.387Z,1007.44
2017-08-03T02:38:13.305Z,1007.48
2017-08-03T02:39:23.532Z,1007.49
2017-08-03T02:40:33.148Z,1007.5
2017-08-03T02:41:42.761Z,1007.46
2017-08-03T02:42:52.708Z,1007.5
2017-08-03T02:44:02.961Z,1007.46
2017-08-03T02:45:12.602Z,1007.45
2017-08-03T02:46:22.532Z,1007.46
2017-08-03T02:47:32.822Z,1007.44
2017-08-03T02:48:43.071Z,1007.4
2017-08-03T02:49:52.992Z,1007.37
2017-08-03T02:51:03.229Z,1007.49
2017-08-03T02:52:13.152Z,1007.56
2017-08-03T02:53:23.115Z,1007.54
2017-08-03T02:54:32.736Z,1007.45
2017-08-03T02:55:42.982Z,1007.33
2017-08-03T02:56:53.229Z,1007.35
2017-08-03T02:58:03.460Z,1007.41
2017-08-03T02:59:13.081Z,1007.42
2017-08-03T03:00:23.005Z,1007.36
2017-08-03T03:01:32.924Z,1007.35
2017-08-03T03:02:42.835Z,1007.4
2017-08-03T03:03:52.780Z,1007.39
2017-08-03T03:05:02.703Z,1007.3
2017-08-03T03:06:12.651Z,1007.31
2017-08-03T03:07:22.268Z,1007.3
2017-08-03T03:08:32.527Z,1007.28
2017-08-03T03:09:42.787Z,1007.23
2017-08-03T03:10:52.723Z,1007.24
2017-08-03T03:12:03.003Z,1007.24
2017-08-03T03:13:13.281Z,1007.26
2017-08-03T03:14:23.207Z,1007.2
2017-08-03T03:15:32.819Z,1007.21
2017-08-03T03:16:43.069Z,1007.19
2017-08-03T03:17:53.298Z,1007.17
2017-08-03T03:19:03.537Z,1007.09
2017-08-03T03:20:13.754Z,1007.1
2017-08-03T03:21:23.679Z,1007.11
2017-08-03T03:22:33.001Z,1007.05
2017-08-03T03:23:42.942Z,1006.99
2017-08-03T03:24:52.868Z,1007.05
2017-08-03T03:26:03.118Z,1007.01
2017-08-03T03:27:13.333Z,1006.96
2017-08-03T03:28:22.658Z,1006.98
2017-08-03T03:29:32.587Z,1006.96
2017-08-03T03:30:42.851Z,1006.91
2017-08-03T03:31:53.118Z,1006.91
2017-08-03T03:33:03.036Z,1007.04
2017-08-03T03:34:13.288Z,1007.16
2017-08-03T03:35:22.901Z,1007.24
2017-08-03T03:36:33.152Z,1007.22
2017-08-03T03:37:43.083Z,1007.14
2017-08-03T03:38:53.308Z,1007.11
2017-08-03T03:40:03.527Z,1007.05
2017-08-03T03:41:13.771Z,1007.03
2017-08-03T03:42:23.092Z,1007.03
2017-08-03T03:43:33.017Z,1006.92
2017-08-03T03:44:42.932Z,1006.88
2017-08-03T03:45:52.560Z,1006.83
2017-08-03T03:47:02.490Z,1006.76
2017-08-03T03:48:12.725Z,1006.78
2017-08-03T03:49:22.974Z,1006.81
2017-08-03T03:50:32.588Z,1006.81
2017-08-03T03:51:41.934Z,1006.8
2017-08-03T03:52:52.166Z,1006.84
2017-08-03T03:54:01.499Z,1006.91
2017-08-03T03:55:11.729Z,1006.98
2017-08-03T03:56:21.334Z,1007.06
2017-08-03T03:57:31.257Z,1007.05
2017-08-03T03:58:40.878Z,1007.04
2017-08-03T03:59:50.820Z,1007.02
2017-08-03T04:01:00.740Z,1006.92
2017-08-03T04:02:10.693Z,1006.94
2017-08-03T04:03:20.619Z,1006.92
2017-08-03T04:04:30.556Z,1006.97
2017-08-03T04:05:40.473Z,1006.91
2017-08-03T04:06:50.407Z,1006.91
2017-08-03T04:08:00.667Z,1006.92
2017-08-03T04:09:10.622Z,1006.87
2017-08-03T04:10:20.865Z,1006.78
2017-08-03T04:11:31.090Z,1006.67
2017-08-03T04:12:41.009Z,1006.62
2017-08-03T04:13:50.918Z,1006.61
2017-08-03T04:15:01.155Z,1006.59
2017-08-03T04:16:10.768Z,1006.52
2017-08-03T04:17:20.998Z,1006.51
2017-08-03T04:18:30.938Z,1006.5
2017-08-03T04:19:41.172Z,1006.44
2017-08-03T04:20:51.437Z,1006.43
2017-08-03T04:22:00.736Z,1006.5
2017-08-03T04:23:10.970Z,1006.53
2017-08-03T04:24:20.906Z,1006.52
2017-08-03T04:25:31.140Z,1006.43
2017-08-03T04:26:41.073Z,1006.32
2017-08-03T04:27:51.004Z,1006.27
2017-08-03T04:29:00.926Z,1006.25
2017-08-03T04:30:10.550Z,1006.27
2017-08-03T04:31:20.490Z,1006.28
2017-08-03T04:32:30.422Z,1006.27
2017-08-03T04:33:40.677Z,1006.3
2017-08-03T04:34:50.614Z,1006.33
2017-08-03T04:36:00.854Z,1006.42
2017-08-03T04:37:10.853Z,1006.45
2017-08-03T04:38:20.485Z,1006.54
2017-08-03T04:39:30.442Z,1006.63
2017-08-03T04:40:40.385Z,1006.64
2017-08-03T04:41:50.325Z,1006.68
2017-08-03T04:43:00.261Z,1006.69
2017-08-03T04:44:10.184Z,1006.69
2017-08-03T04:45:20.419Z,1006.6
2017-08-03T04:46:30.054Z,1006.57
2017-08-03T04:47:39.974Z,1006.5
2017-08-03T04:48:49.602Z,1006.47
2017-08-03T04:49:59.824Z,1006.58
2017-08-03T04:51:08.830Z,1006.56
2017-08-03T04:52:19.065Z,1006.57
2017-08-03T04:53:28.990Z,1006.6
2017-08-03T04:54:39.231Z,1006.61
2017-08-03T04:55:49.149Z,1006.66
2017-08-03T04:56:59.087Z,1006.73
2017-08-03T04:58:09.328Z,1006.67
2017-08-03T04:59:18.953Z,1006.61
2017-08-03T05:00:28.266Z,1006.62
2017-08-03T05:01:37.911Z,1006.56
2017-08-03T05:02:48.148Z,1006.56
2017-08-03T05:03:57.763Z,1006.56
2017-08-03T05:05:08.013Z,1006.69
2017-08-03T05:06:18.250Z,1006.71
2017-08-03T05:07:28.195Z,1006.58
2017-08-03T05:08:38.132Z,1006.6
2017-08-03T05:09:48.382Z,1006.5
2017-08-03T05:10:58.319Z,1006.43
2017-08-03T05:12:08.247Z,1006.35
2017-08-03T05:13:17.882Z,1006.54
2017-08-03T05:14:27.507Z,1006.6
2017-08-03T05:15:37.457Z,1006.64
2017-08-03T05:16:47.372Z,1006.74
2017-08-03T05:17:57.304Z,1006.78
2017-08-03T05:19:07.533Z,1006.73
2017-08-03T05:20:17.487Z,1006.7
2017-08-03T05:21:27.481Z,1006.69
2017-08-03T05:22:37.409Z,1006.66
2017-08-03T05:23:47.349Z,1006.62
2017-08-03T05:24:57.286Z,1006.62
2017-08-03T05:26:07.240Z,1006.51
2017-08-03T05:27:17.169Z,1006.41
2017-08-03T05:28:27.391Z,1006.32
2017-08-03T05:29:37.642Z,1006.3
2017-08-03T05:30:47.578Z,1006.35
2017-08-03T05:31:57.845Z,1006.42
2017-08-03T05:33:07.202Z,1006.43
2017-08-03T05:34:17.127Z,1006.49
2017-08-03T05:35:26.745Z,1006.41
2017-08-03T05:36:36.674Z,1006.46
2017-08-03T05:37:46.906Z,1006.47
2017-08-03T05:38:56.837Z,1006.45
2017-08-03T05:40:06.766Z,1006.42
2017-08-03T05:41:16.087Z,1006.42
2017-08-03T05:42:26.082Z,1006.44
2017-08-03T05:43:36.015Z,1006.44
2017-08-03T05:44:45.950Z,1006.39
2017-08-03T05:45:55.896Z,1006.38
2017-08-03T05:47:06.139Z,1006.36
2017-08-03T05:48:16.056Z,1006.31
2017-08-03T05:49:25.979Z,1006.28
2017-08-03T05:50:35.939Z,1006.28
2017-08-03T05:51:46.181Z,1006.29
2017-08-03T05:52:56.032Z,1006.29
2017-08-03T05:54:06.236Z,1006.28
2017-08-03T05:55:16.178Z,1006.28
2017-08-03T05:56:25.889Z,1006.24
2017-08-03T05:57:35.804Z,1006.18
2017-08-03T05:58:45.117Z,1006.19
2017-08-03T05:59:55.346Z,1006.15
2017-08-03T06:01:05.588Z,1006.16
2017-08-03T06:02:15.518Z,1006.21
2017-08-03T06:03:25.452Z,1006.25
2017-08-03T06:04:35.085Z,1006.26
2017-08-03T06:05:43.784Z,1006.25
2017-08-03T06:06:54.025Z,1006.27
2017-08-03T06:08:03.981Z,1006.23
2017-08-03T06:09:14.228Z,1006.2
2017-08-03T06:10:23.840Z,1006.2
2017-08-03T06:11:33.462Z,1006.09
2017-08-03T06:12:43.382Z,1006.1
2017-08-03T06:13:53.607Z,1006.2
2017-08-03T06:15:03.525Z,1006.28
2017-08-03T06:16:13.162Z,1006.3
2017-08-03T06:17:23.147Z,1006.35
2017-08-03T06:18:33.078Z,1006.38
2017-08-03T06:19:43.324Z,1006.41
2017-08-03T06:20:52.977Z,1006.38
2017-08-03T06:22:02.596Z,1006.33
2017-08-03T06:23:12.533Z,1006.37
2017-08-03T06:24:22.499Z,1006.4
2017-08-03T06:25:31.212Z,1006.27
2017-08-03T06:26:41.163Z,1006.2
2017-08-03T06:27:51.422Z,1006.2
2017-08-03T06:29:00.739Z,1006.16
2017-08-03T06:30:10.977Z,1006.18
2017-08-03T06:31:20.909Z,1006.18
2017-08-03T06:32:30.226Z,1006.14
2017-08-03T06:33:39.859Z,1006.06
2017-08-03T06:34:50.115Z,1006.02
2017-08-03T06:36:00.057Z,1005.99
2017-08-03T06:37:10.308Z,1005.94
2017-08-03T06:38:20.229Z,1005.94
2017-08-03T06:39:30.188Z,1006.14
2017-08-03T06:40:39.519Z,1006.22
2017-08-03T06:41:49.152Z,1006.26
2017-08-03T06:42:59.090Z,1006.21
2017-08-03T06:44:09.338Z,1006.25
2017-08-03T06:45:19.581Z,1006.27
2017-08-03T06:46:29.517Z,1006.33
2017-08-03T06:47:39.752Z,1006.41
2017-08-03T06:48:49.692Z,1006.5
2017-08-03T06:49:59.624Z,1006.6
2017-08-03T06:51:09.546Z,1006.6
2017-08-03T06:52:19.474Z,1006.64
2017-08-03T06:53:29.408Z,1006.67
2017-08-03T06:54:39.075Z,1006.69
2017-08-03T06:55:49.009Z,1006.7
2017-08-03T06:56:58.628Z,1006.68
2017-08-03T06:58:08.860Z,1006.63
2017-08-03T06:59:19.121Z,1006.64
2017-08-03T07:00:29.036Z,1006.65
2017-08-03T07:01:38.965Z,1006.62
2017-08-03T07:02:48.947Z,1006.6
2017-08-03T07:03:58.879Z,1006.7
2017-08-03T07:05:09.155Z,1006.71
2017-08-03T07:06:19.393Z,1006.73
2017-08-03T07:07:29.025Z,1006.74
2017-08-03T07:08:38.986Z,1006.8
2017-08-03T07:09:48.592Z,1006.84
2017-08-03T07:10:58.823Z,1006.83
2017-08-03T07:12:08.436Z,1006.78
2017-08-03T07:13:18.057Z,1006.76
2017-08-03T07:14:27.995Z,1006.74
2017-08-03T07:15:37.948Z,1006.74
2017-08-03T07:16:47.910Z,1006.67
2017-08-03T07:17:58.173Z,1006.63
2017-08-03T07:19:08.128Z,1006.63
2017-08-03T07:20:18.079Z,1006.66
2017-08-03T07:21:28.017Z,1006.61
2017-08-03T07:22:38.294Z,1006.58
2017-08-03T07:23:48.233Z,1006.59
2017-08-03T07:24:58.180Z,1006.57
2017-08-03T07:26:07.808Z,1006.55
2017-08-03T07:27:17.756Z,1006.56
2017-08-03T07:28:27.383Z,1006.51
2017-08-03T07:29:37.318Z,1006.5
2017-08-03T07:30:47.556Z,1006.58
2017-08-03T07:31:57.500Z,1006.55
2017-08-03T07:33:07.433Z,1006.53
2017-08-03T07:34:17.695Z,1006.47
2017-08-03T07:35:27.335Z,1006.46
2017-08-03T07:36:37.598Z,1006.42
2017-08-03T07:37:47.213Z,1006.48
2017-08-03T07:38:57.473Z,1006.47
2017-08-03T07:40:07.720Z,1006.45
2017-08-03T07:41:17.974Z,1006.48
2017-08-03T07:42:26.979Z,1006.46
2017-08-03T07:43:37.230Z,1006.52
2017-08-03T07:44:47.470Z,1006.54
2017-08-03T07:45:57.425Z,1006.53
2017-08-03T07:47:07.343Z,1006.51
2017-08-03T07:48:16.958Z,1006.53
2017-08-03T07:49:26.612Z,1006.6
2017-08-03T07:50:36.555Z,1006.54
2017-08-03T07:51:46.180Z,1006.58
2017-08-03T07:52:56.440Z,1006.6
2017-08-03T07:54:06.369Z,1006.61
2017-08-03T07:55:16.017Z,1006.59
2017-08-03T07:56:25.949Z,1006.62
2017-08-03T07:57:36.229Z,1006.64
2017-08-03T07:58:46.171Z,1006.68
2017-08-03T07:59:56.126Z,1006.65
2017-08-03T08:01:05.751Z,1006.62
2017-08-03T08:02:15.777Z,1006.63
2017-08-03T08:03:26.029Z,1006.6
2017-08-03T08:04:36.278Z,1006.62
2017-08-03T08:05:46.210Z,1006.61
2017-08-03T08:06:55.843Z,1006.69
2017-08-03T08:08:05.808Z,1006.69
2017-08-03T08:09:15.459Z,1006.75
2017-08-03T08:10:25.398Z,1006.82
2017-08-03T08:11:35.674Z,1006.81
2017-08-03T08:12:45.319Z,1006.79
2017-08-03T08:13:55.571Z,1006.78
2017-08-03T08:15:05.521Z,1006.79
2017-08-03T08:16:15.508Z,1006.82
2017-08-03T08:17:25.759Z,1006.79
2017-08-03T08:18:36.003Z,1006.77
2017-08-03T08:19:45.944Z,1006.75
2017-08-03T08:20:55.600Z,1006.74
2017-08-03T08:22:04.935Z,1006.7
2017-08-03T08:23:14.593Z,1006.66
2017-08-03T08:24:24.852Z,1006.7
2017-08-03T08:25:35.143Z,1006.71
2017-08-03T08:26:44.770Z,1006.74
2017-08-03T08:27:55.047Z,1006.74
2017-08-03T08:29:04.659Z,1006.74
2017-08-03T08:30:14.583Z,1006.76
2017-08-03T08:31:24.554Z,1006.74
2017-08-03T08:32:34.832Z,1006.79
2017-08-03T08:33:44.785Z,1006.77
2017-08-03T08:34:55.014Z,1006.74
2017-08-03T08:36:04.678Z,1006.69
2017-08-03T08:37:14.628Z,1006.69
2017-08-03T08:38:24.868Z,1006.66
2017-08-03T08:39:35.119Z,1006.6
2017-08-03T08:40:44.738Z,1006.59
2017-08-03T08:41:54.359Z,1006.5
2017-08-03T08:43:03.983Z,1006.55
2017-08-03T08:44:14.267Z,1006.55
2017-08-03T08:45:23.893Z,1006.53
2017-08-03T08:46:34.138Z,1006.5
2017-08-03T08:47:43.771Z,1006.61
2017-08-03T08:48:53.687Z,1006.57
2017-08-03T08:50:03.608Z,1006.51
2017-08-03T08:51:13.836Z,1006.47
2017-08-03T08:52:23.774Z,1006.48
2017-08-03T08:53:33.741Z,1006.46
2017-08-03T08:54:43.657Z,1006.47
2017-08-03T08:55:53.278Z,1006.44
2017-08-03T08:57:03.223Z,1006.46
2017-08-03T08:58:13.179Z,1006.48
2017-08-03T08:59:23.108Z,1006.52
2017-08-03T09:00:33.055Z,1006.55
2017-08-03T09:01:43.330Z,1006.52
2017-08-03T09:02:52.974Z,1006.53
2017-08-03T09:04:02.621Z,1006.49
2017-08-03T09:05:12.553Z,1006.48
2017-08-03T09:06:22.178Z,1006.5
2017-08-03T09:07:31.857Z,1006.45
2017-08-03T09:08:41.783Z,1006.41
2017-08-03T09:09:51.722Z,1006.43
2017-08-03T09:11:01.672Z,1006.45
2017-08-03T09:12:11.620Z,1006.49
2017-08-03T09:13:21.255Z,1006.48
2017-08-03T09:14:31.530Z,1006.48
2017-08-03T09:15:41.466Z,1006.45
2017-08-03T09:16:51.713Z,1006.41
2017-08-03T09:18:01.341Z,1006.32
2017-08-03T09:19:11.595Z,1006.42
2017-08-03T09:20:21.839Z,1006.4
2017-08-03T09:21:31.485Z,1006.19
2017-08-03T09:22:41.427Z,1006.06
2017-08-03T09:23:51.684Z,1006.04
2017-08-03T09:25:01.619Z,1006.08
2017-08-03T09:26:11.247Z,1006.03
2017-08-03T09:27:21.500Z,1006.03
2017-08-03T09:28:31.472Z,1005.99
2017-08-03T09:29:41.417Z,1005.91
2017-08-03T09:30:50.739Z,1005.79
2017-08-03T09:32:00.695Z,1005.8
2017-08-03T09:33:10.328Z,1005.93
2017-08-03T09:34:20.278Z,1005.99
2017-08-03T09:35:30.533Z,1006
2017-08-03T09:36:40.788Z,1006.09
2017-08-03T09:37:50.749Z,1006.07
2017-08-03T09:39:00.672Z,1006.09
2017-08-03T09:40:10.623Z,1006.03
2017-08-03T09:41:20.565Z,1006.04
2017-08-03T09:42:30.815Z,1006.02
2017-08-03T09:43:40.437Z,1006.01
2017-08-03T09:44:50.079Z,1006
2017-08-03T09:46:00.089Z,1005.97
2017-08-03T09:47:10.340Z,1005.97
2017-08-03T09:48:19.661Z,1005.96
2017-08-03T09:49:29.286Z,1005.96
2017-08-03T09:50:39.246Z,1005.98
2017-08-03T09:51:49.564Z,1005.9
2017-08-03T09:52:59.517Z,1005.93
2017-08-03T09:54:09.457Z,1005.92
2017-08-03T09:55:19.394Z,1005.9
2017-08-03T09:56:29.328Z,1005.88
2017-08-03T09:57:39.275Z,1005.89
2017-08-03T09:58:49.213Z,1005.9
2017-08-03T09:59:59.154Z,1005.9
2017-08-03T10:01:09.411Z,1005.96
2017-08-03T10:02:19.060Z,1005.96
2017-08-03T10:03:28.992Z,1005.91
2017-08-03T10:04:38.931Z,1005.94
2017-08-03T10:05:48.872Z,1005.93
2017-08-03T10:06:58.498Z,1005.89
2017-08-03T10:08:08.443Z,1005.85
2017-08-03T10:09:18.080Z,1005.84
2017-08-03T10:10:28.326Z,1005.87
2017-08-03T10:11:38.587Z,1005.78
2017-08-03T10:12:48.521Z,1005.8
2017-08-03T10:13:58.145Z,1005.79
2017-08-03T10:15:08.104Z,1005.86
2017-08-03T10:16:18.372Z,1005.8
2017-08-03T10:17:28.615Z,1005.81
2017-08-03T10:18:38.862Z,1005.81
2017-08-03T10:19:48.175Z,1005.88
2017-08-03T10:20:58.432Z,1005.87
2017-08-03T10:22:08.391Z,1005.83
2017-08-03T10:23:18.720Z,1005.82
2017-08-03T10:24:28.952Z,1005.82
2017-08-03T10:25:38.896Z,1005.78
2017-08-03T10:26:49.162Z,1005.74
2017-08-03T10:27:58.498Z,1005.77
2017-08-03T10:29:08.745Z,1005.71
2017-08-03T10:30:18.694Z,1005.69
2017-08-03T10:31:28.945Z,1005.76
2017-08-03T10:32:38.883Z,1005.73
2017-08-03T10:33:48.197Z,1005.71
2017-08-03T10:34:57.817Z,1005.72
2017-08-03T10:36:07.464Z,1005.78
2017-08-03T10:37:17.741Z,1005.82
2017-08-03T10:38:27.699Z,1005.85
2017-08-03T10:39:38.004Z,1005.77
2017-08-03T10:40:47.975Z,1005.85
2017-08-03T10:41:57.659Z,1005.89
2017-08-03T10:43:07.328Z,1005.87
2017-08-03T10:44:16.703Z,1005.95
2017-08-03T10:45:26.675Z,1006.02
2017-08-03T10:46:36.664Z,1005.97
2017-08-03T10:47:46.925Z,1005.99
2017-08-03T10:48:56.259Z,1006.02
2017-08-03T10:50:06.217Z,1006.03
2017-08-03T10:51:15.866Z,1006.1
2017-08-03T10:52:25.830Z,1006.08
2017-08-03T10:53:35.756Z,1006.22
2017-08-03T10:54:45.391Z,1006.26
2017-08-03T10:55:55.009Z,1006.28
2017-08-03T10:57:04.958Z,1006.36
2017-08-03T10:58:15.206Z,1006.32
2017-08-03T10:59:25.460Z,1006.36
2017-08-03T11:00:35.104Z,1006.38
2017-08-03T11:01:44.739Z,1006.36
2017-08-03T11:02:54.051Z,1006.38
2017-08-03T11:04:03.083Z,1006.47
2017-08-03T11:05:13.061Z,1006.56
2017-08-03T11:06:23.038Z,1006.51
2017-08-03T11:07:33.307Z,1006.36
2017-08-03T11:08:43.263Z,1006.39
2017-08-03T11:09:52.906Z,1006.46
2017-08-03T11:11:02.844Z,1006.49
2017-08-03T11:12:12.181Z,1006.55
2017-08-03T11:13:21.514Z,1006.42
2017-08-03T11:14:31.458Z,1006.48
2017-08-03T11:15:41.091Z,1006.46
2017-08-03T11:16:50.714Z,1006.46
2017-08-03T11:18:00.371Z,1006.46
2017-08-03T11:19:09.710Z,1006.46
2017-08-03T11:20:20.351Z,1006.47
2017-08-03T11:21:30.289Z,1006.42
2017-08-03T11:22:39.931Z,1006.41
2017-08-03T11:23:49.890Z,1006.44
2017-08-03T11:24:59.535Z,1006.54
2017-08-03T11:26:09.193Z,1006.47
2017-08-03T11:27:19.143Z,1006.52
2017-08-03T11:28:28.491Z,1006.49
2017-08-03T11:29:38.764Z,1006.5
2017-08-03T11:30:48.729Z,1006.49
2017-08-03T11:31:58.659Z,1006.46
2017-08-03T11:33:08.307Z,1006.48
2017-08-03T11:34:18.271Z,1006.48
2017-08-03T11:35:28.217Z,1006.41
2017-08-03T11:36:38.157Z,1006.44
2017-08-03T11:37:48.417Z,1006.45
2017-08-03T11:38:58.377Z,1006.49
2017-08-03T11:40:08.308Z,1006.52
2017-08-03T11:41:17.978Z,1006.51
2017-08-03T11:42:28.216Z,1006.46
2017-08-03T11:43:38.463Z,1006.5
2017-08-03T11:44:48.505Z,1006.47
2017-08-03T11:45:58.440Z,1006.47
2017-08-03T11:47:08.084Z,1006.48
2017-08-03T11:48:18.445Z,1006.48
2017-08-03T11:49:28.067Z,1006.5
2017-08-03T11:50:38.008Z,1006.55
2017-08-03T11:51:48.273Z,1006.56
2017-08-03T11:52:58.524Z,1006.58
2017-08-03T11:54:08.565Z,1006.58
2017-08-03T11:55:18.503Z,1006.56
2017-08-03T11:56:28.823Z,1006.61
2017-08-03T11:57:38.783Z,1006.66
2017-08-03T11:58:48.838Z,1006.61
2017-08-03T11:59:58.781Z,1006.6
2017-08-03T12:01:08.412Z,1006.63
2017-08-03T12:02:18.413Z,1006.66
2017-08-03T12:03:28.653Z,1006.69
2017-08-03T12:04:38.112Z,1006.7
2017-08-03T12:05:48.346Z,1006.7
2017-08-03T12:06:57.991Z,1006.77
2017-08-03T12:08:07.944Z,1006.68
2017-08-03T12:09:17.880Z,1006.72
2017-08-03T12:10:27.871Z,1006.84
2017-08-03T12:11:37.799Z,1006.81
2017-08-03T12:12:47.765Z,1006.77
2017-08-03T12:13:57.712Z,1006.74
2017-08-03T12:15:07.646Z,1006.81
2017-08-03T12:16:17.986Z,1006.81
2017-08-03T12:17:28.279Z,1006.8
2017-08-03T12:18:38.530Z,1006.79
2017-08-03T12:19:48.522Z,1006.82
2017-08-03T12:20:58.506Z,1006.78
2017-08-03T12:22:08.465Z,1006.82
2017-08-03T12:23:18.713Z,1006.87
2017-08-03T12:24:28.347Z,1006.8
2017-08-03T12:25:38.316Z,1006.85
2017-08-03T12:26:48.555Z,1006.84
2017-08-03T12:27:58.832Z,1006.83
2017-08-03T12:29:09.092Z,1006.85
2017-08-03T12:30:18.792Z,1006.84
2017-08-03T12:31:28.725Z,1006.86
2017-08-03T12:32:38.357Z,1006.89
2017-08-03T12:33:48.313Z,1006.89
2017-08-03T12:34:58.610Z,1006.88
2017-08-03T12:36:08.854Z,1006.93
2017-08-03T12:37:18.192Z,1006.9
2017-08-03T12:38:28.155Z,1006.89
2017-08-03T12:39:38.491Z,1006.95
2017-08-03T12:40:48.521Z,1006.85
2017-08-03T12:41:57.220Z,1006.91
2017-08-03T12:43:07.523Z,1006.96
2017-08-03T12:44:17.154Z,1006.98
2017-08-03T12:45:27.442Z,1006.95
2017-08-03T12:46:37.387Z,1006.93
2017-08-03T12:47:47.309Z,1006.88
2017-08-03T12:48:56.595Z,1006.82
2017-08-03T12:50:06.222Z,1006.82
2017-08-03T12:51:16.155Z,1006.83
2017-08-03T12:52:26.404Z,1006.83
2017-08-03T12:53:35.852Z,1006.76
2017-08-03T12:54:46.129Z,1006.75
2017-08-03T12:55:56.066Z,1006.66
2017-08-03T12:57:06.042Z,1006.54
2017-08-03T12:58:15.390Z,1006.58
2017-08-03T12:59:25.131Z,1006.66
2017-08-03T13:00:34.440Z,1006.66
2017-08-03T13:01:44.727Z,1006.51
2017-08-03T13:02:54.359Z,1006.49
2017-08-03T13:04:04.295Z,1006.45
2017-08-03T13:05:13.936Z,1006.47
2017-08-03T13:06:23.577Z,1006.46
2017-08-03T13:07:33.857Z,1006.46
2017-08-03T13:08:44.135Z,1006.4
2017-08-03T13:09:54.067Z,1006.41
2017-08-03T13:11:04.312Z,1006.46
2017-08-03T13:12:14.245Z,1006.41
2017-08-03T13:13:24.481Z,1006.45
2017-08-03T13:14:34.400Z,1006.42
2017-08-03T13:15:44.014Z,1006.45
2017-08-03T13:16:53.662Z,1006.37
2017-08-03T13:18:03.934Z,1006.39
2017-08-03T13:19:13.877Z,1006.39
2017-08-03T13:20:23.515Z,1006.47
2017-08-03T13:21:33.448Z,1006.48
2017-08-03T13:22:43.082Z,1006.47
2017-08-03T13:23:53.028Z,1006.51
2017-08-03T13:25:03.289Z,1006.41
2017-08-03T13:26:13.560Z,1006.53
2017-08-03T13:27:23.816Z,1006.62
2017-08-03T13:28:33.747Z,1006.48
2017-08-03T13:29:43.084Z,1006.51
2017-08-03T13:30:53.040Z,1006.63
2017-08-03T13:32:03.003Z,1006.56
2017-08-03T13:33:12.333Z,1006.51
2017-08-03T13:34:22.598Z,1006.59
2017-08-03T13:35:32.551Z,1006.57
2017-08-03T13:36:42.815Z,1006.46
2017-08-03T13:37:52.762Z,1006.47
2017-08-03T13:39:02.743Z,1006.49
2017-08-03T13:40:12.694Z,1006.41
2017-08-03T13:41:22.966Z,1006.31
2017-08-03T13:42:33.209Z,1006.4
2017-08-03T13:43:42.862Z,1006.38
2017-08-03T13:44:53.142Z,1006.38
2017-08-03T13:46:03.109Z,1006.26
2017-08-03T13:47:13.378Z,1006.27
2017-08-03T13:48:23.312Z,1006.27
2017-08-03T13:49:32.944Z,1006.26
2017-08-03T13:50:42.589Z,1006.18
2017-08-03T13:51:52.210Z,1006.23
2017-08-03T13:53:02.148Z,1006.27
2017-08-03T13:54:12.087Z,1006.24
2017-08-03T13:55:21.719Z,1006.19
2017-08-03T13:56:31.342Z,1006.18
2017-08-03T13:57:41.588Z,1006.21
2017-08-03T13:58:51.213Z,1006.16
2017-08-03T14:00:00.845Z,1006.14
2017-08-03T14:01:10.461Z,1006.14
2017-08-03T14:02:20.721Z,1006.06
2017-08-03T14:03:30.974Z,1006.07
2017-08-03T14:04:40.607Z,1006.02
2017-08-03T14:05:49.932Z,1006.04
2017-08-03T14:07:00.168Z,1006.01
2017-08-03T14:08:10.449Z,1006.03
2017-08-03T14:09:20.710Z,1006.07
2017-08-03T14:10:30.659Z,1006.03
2017-08-03T14:11:40.631Z,1006.01
2017-08-03T14:12:50.280Z,1006.05
2017-08-03T14:13:59.609Z,1005.9
2017-08-03T14:15:09.879Z,1006